Accueil
METAR-TAF:

METAR-TAF

Aéroports :

Wakkanai, Japon

latitude: 45-24N, longitude: 141-48E, altitude: 8 m

Observation

Le bulletin a été fait il y a 14 heures et 49 minutes, à 09:00 UTC
Vent 27 kt de ouest/nord-ouest
Température 5°C
Humidité 56%
Pression 1003 hPa
Visibilité 10 km ou plus
Quelques nuages à une hauteur de 3500 ft

METAR: RJCW 200900Z 29027KT 9999 FEW035 05/M03 Q1003

Heure: 08:49 (23:49 UTC)


TAF: absent

Observations et prévisions météorologiques de plus de 4000 aéroports (messages METAR et TAF).

Les stations disponibles sont représentées par des disques jaunes et rouges sur la carte.

Passer la souris dessus pour voir le nom de la station.

Cliquer dessus pour voir les observations et prévisions météorologiques.

Pour changer de carte: cliquez sur les boutons verts avec une croix noire pour zoomer, sur le bouton vert avec un tiret pour effectuer un zoom arrière, ou sur les flèches vertes pour les cartes adjacentes.


METAR-TAF: